createdAt,value
2023-03-22T00:01:32.495Z,5.00
2023-03-22T00:04:29.375Z,5.03
2023-03-22T00:07:26.586Z,8.43
2023-03-22T00:10:25.502Z,6.75
2023-03-22T00:13:22.359Z,12.63
2023-03-22T00:16:19.989Z,9.93
2023-03-22T00:19:17.546Z,8.90
2023-03-22T00:22:14.766Z,7.00
2023-03-22T00:25:11.679Z,7.38
2023-03-22T00:28:08.551Z,7.20
2023-03-22T00:31:06.630Z,5.22
2023-03-22T00:34:03.495Z,4.90
2023-03-22T00:37:00.352Z,4.22
2023-03-22T00:39:57.342Z,3.83
2023-03-22T00:42:54.170Z,4.50
2023-03-22T00:45:51.024Z,5.03
2023-03-22T00:48:48.704Z,4.38
2023-03-22T00:51:46.590Z,3.70
2023-03-22T00:54:43.770Z,4.07
2023-03-22T00:57:40.793Z,3.92
2023-03-22T01:00:37.825Z,4.03
2023-03-22T01:03:35.127Z,3.22
2023-03-22T01:06:33.613Z,3.88
2023-03-22T01:09:33.731Z,3.90
2023-03-22T01:12:31.013Z,3.63
2023-03-22T01:15:28.031Z,3.50
2023-03-22T01:18:25.194Z,3.90
2023-03-22T01:21:21.994Z,3.63
2023-03-22T01:24:18.864Z,4.32
2023-03-22T01:27:16.775Z,5.20
2023-03-22T01:30:14.187Z,5.18
2023-03-22T01:33:11.044Z,4.03
2023-03-22T01:36:08.453Z,3.97
2023-03-22T01:39:05.370Z,3.70
2023-03-22T01:42:03.515Z,3.50
2023-03-22T01:45:16.604Z,3.88
2023-03-22T01:48:41.966Z,4.88
2023-03-22T01:51:40.453Z,3.22
2023-03-22T01:54:43.244Z,4.18
2023-03-22T01:57:41.929Z,5.10
2023-03-22T02:00:38.953Z,4.88
2023-03-22T02:03:51.772Z,4.82
2023-03-22T02:06:51.579Z,6.40
2023-03-22T02:09:48.395Z,6.67
2023-03-22T02:13:27.257Z,5.97
2023-03-22T02:17:01.948Z,7.35
2023-03-22T02:20:47.084Z,7.00
2023-03-22T02:24:32.875Z,6.32
2023-03-22T02:28:21.454Z,6.38
2023-03-22T02:32:15.606Z,6.15
2023-03-22T02:35:42.202Z,5.82
2023-03-22T02:39:13.227Z,5.63
2023-03-22T02:46:07.075Z,5.07
2023-03-22T02:49:32.740Z,5.30
2023-03-22T02:53:12.503Z,4.20
2023-03-22T02:56:19.430Z,5.70
2023-03-22T02:59:19.748Z,5.18
2023-03-22T03:02:18.493Z,5.22
2023-03-22T03:05:18.295Z,5.35
2023-03-22T03:08:18.088Z,4.32
2023-03-22T03:11:14.888Z,4.20
2023-03-22T03:14:30.672Z,4.80
2023-03-22T03:18:16.101Z,4.75
2023-03-22T03:22:05.027Z,5.05
2023-03-22T03:25:27.857Z,5.60
2023-03-22T03:29:19.807Z,5.53
2023-03-22T03:32:27.223Z,4.63
2023-03-22T03:35:39.273Z,4.90
2023-03-22T03:38:42.839Z,4.57
2023-03-22T03:41:42.716Z,4.57
2023-03-22T03:44:39.866Z,5.30
2023-03-22T03:47:37.546Z,4.55
2023-03-22T03:50:35.250Z,5.22
2023-03-22T03:53:32.193Z,4.80
2023-03-22T03:56:29.000Z,4.45
2023-03-22T03:59:25.854Z,4.93
2023-03-22T04:02:22.799Z,6.07
2023-03-22T04:05:19.684Z,5.78
2023-03-22T04:08:16.600Z,5.97
2023-03-22T04:11:13.444Z,5.30
2023-03-22T04:14:10.345Z,5.85
2023-03-22T04:17:07.186Z,5.50
2023-03-22T04:20:06.563Z,5.80
2023-03-22T04:23:03.397Z,5.25
2023-03-22T04:26:00.842Z,6.05
2023-03-22T04:28:58.577Z,6.10
2023-03-22T04:31:55.428Z,6.43
2023-03-22T04:34:53.347Z,6.05
2023-03-22T04:37:51.601Z,6.80
2023-03-22T04:40:48.434Z,6.78
2023-03-22T04:43:47.150Z,5.88
2023-03-22T04:46:44.498Z,6.00
2023-03-22T04:49:41.856Z,5.82
2023-03-22T04:52:38.689Z,6.30
2023-03-22T04:55:35.593Z,6.05
2023-03-22T04:58:34.122Z,5.70
2023-03-22T05:01:31.084Z,6.88
2023-03-22T05:04:28.291Z,6.18
2023-03-22T05:07:25.596Z,5.82
2023-03-22T05:10:22.419Z,6.72
2023-03-22T05:13:20.697Z,6.32
2023-03-22T05:16:17.587Z,7.22
2023-03-22T05:19:14.459Z,6.97
2023-03-22T05:22:12.081Z,7.70
2023-03-22T05:25:10.978Z,10.32
2023-03-22T05:28:08.596Z,11.73
2023-03-22T05:31:05.814Z,13.98
2023-03-22T05:34:03.251Z,13.23
2023-03-22T05:37:00.840Z,13.65
2023-03-22T05:39:57.694Z,14.13
2023-03-22T05:42:55.231Z,13.20
2023-03-22T05:45:52.983Z,16.75
2023-03-22T05:48:49.857Z,16.73
2023-03-22T05:51:47.046Z,12.35
2023-03-22T05:54:43.895Z,16.50
2023-03-22T05:57:41.389Z,16.35
2023-03-22T06:00:38.621Z,13.82
2023-03-22T06:03:35.927Z,23.23
2023-03-22T06:06:33.192Z,17.02
2023-03-22T06:09:30.011Z,16.30
2023-03-22T06:12:28.896Z,17.02
2023-03-22T06:15:26.870Z,16.80
2023-03-22T06:18:23.706Z,16.52
2023-03-22T06:21:21.150Z,15.52
2023-03-22T06:24:17.980Z,17.00
2023-03-22T06:27:14.976Z,13.20
2023-03-22T06:30:12.095Z,11.85
2023-03-22T06:33:08.924Z,11.75
2023-03-22T06:36:06.315Z,11.55
2023-03-22T06:39:05.181Z,11.45
2023-03-22T06:42:02.041Z,12.18
2023-03-22T06:44:58.833Z,11.18
2023-03-22T06:47:55.757Z,12.15
2023-03-22T06:50:52.683Z,11.90
2023-03-22T06:53:49.532Z,17.08
2023-03-22T06:56:46.378Z,14.05
2023-03-22T06:59:43.244Z,20.85
2023-03-22T07:02:40.172Z,10.75
2023-03-22T07:05:37.033Z,11.40
2023-03-22T07:08:35.463Z,17.85
2023-03-22T07:11:32.308Z,10.90
2023-03-22T07:14:29.146Z,9.50
2023-03-22T07:17:26.216Z,10.35
2023-03-22T07:20:23.052Z,8.00
2023-03-22T07:23:20.361Z,9.82
2023-03-22T07:26:17.191Z,9.55
2023-03-22T07:29:14.008Z,9.50
2023-03-22T07:32:11.437Z,8.60
2023-03-22T07:35:08.827Z,8.18
2023-03-22T07:38:06.523Z,8.05
2023-03-22T07:41:04.205Z,10.00
2023-03-22T07:44:16.658Z,9.02
2023-03-22T07:47:14.656Z,9.10
2023-03-22T07:50:13.182Z,9.68
2023-03-22T07:53:10.873Z,9.73
2023-03-22T07:56:08.337Z,8.98
2023-03-22T07:59:05.260Z,10.65
2023-03-22T08:02:02.313Z,8.05
2023-03-22T08:04:59.161Z,9.55
2023-03-22T08:07:56.957Z,9.38
2023-03-22T08:10:53.857Z,8.82
2023-03-22T08:13:51.450Z,7.43
2023-03-22T08:16:48.307Z,8.77
2023-03-22T08:19:46.392Z,7.07
2023-03-22T08:22:43.330Z,7.90
2023-03-22T08:25:40.257Z,7.10
2023-03-22T08:28:37.557Z,6.85
2023-03-22T08:31:34.460Z,7.82
2023-03-22T08:34:33.207Z,8.57
2023-03-22T08:37:30.140Z,11.00
2023-03-22T08:40:27.288Z,9.50
2023-03-22T08:43:24.270Z,5.95
2023-03-22T08:46:21.146Z,7.35
2023-03-22T08:49:18.036Z,8.02
2023-03-22T08:52:14.914Z,6.85
2023-03-22T08:55:11.783Z,7.35
2023-03-22T08:58:10.188Z,6.97
2023-03-22T09:01:07.235Z,7.00
2023-03-22T09:04:05.619Z,6.55
2023-03-22T09:07:02.751Z,6.18
2023-03-22T09:09:59.606Z,6.80
2023-03-22T09:12:56.666Z,6.03
2023-03-22T09:15:53.635Z,6.65
2023-03-22T09:18:50.589Z,6.63
2023-03-22T09:21:47.625Z,6.38
2023-03-22T09:24:44.522Z,6.50
2023-03-22T09:27:41.377Z,6.50
2023-03-22T09:30:38.941Z,6.38
2023-03-22T09:33:38.216Z,6.90
2023-03-22T09:36:35.106Z,6.85
2023-03-22T09:39:32.003Z,6.10
2023-03-22T09:42:44.045Z,5.25
2023-03-22T09:45:44.260Z,5.05
2023-03-22T09:48:44.184Z,4.60
2023-03-22T09:51:45.033Z,6.03
2023-03-22T09:57:40.888Z,4.65
2023-03-22T10:00:45.866Z,3.67
2023-03-22T10:03:54.885Z,3.60
2023-03-22T10:07:30.728Z,3.85
2023-03-22T10:10:28.104Z,3.22
2023-03-22T10:13:47.778Z,2.80
2023-03-22T10:16:45.852Z,3.08
2023-03-22T10:20:09.615Z,3.30
2023-03-22T10:23:13.207Z,3.45
2023-03-22T10:26:23.984Z,2.63
2023-03-22T10:29:39.646Z,3.13
2023-03-22T10:32:57.130Z,3.53
2023-03-22T10:35:55.823Z,1.70
2023-03-22T10:38:58.962Z,2.03
2023-03-22T10:41:58.716Z,1.80
2023-03-22T10:45:09.295Z,2.10
2023-03-22T10:48:25.212Z,1.73
2023-03-22T10:51:47.777Z,2.00
2023-03-22T10:54:44.771Z,1.40
2023-03-22T10:57:51.401Z,1.90
2023-03-22T11:00:55.933Z,1.73
2023-03-22T11:04:02.884Z,1.98
2023-03-22T11:06:59.720Z,2.13
2023-03-22T11:10:22.952Z,2.17
2023-03-22T11:13:23.027Z,1.58
2023-03-22T11:16:20.558Z,1.80
2023-03-22T11:19:39.370Z,2.55
2023-03-22T11:22:48.103Z,1.60
2023-03-22T11:25:51.089Z,0.60
2023-03-22T11:28:51.190Z,1.98
2023-03-22T11:31:57.159Z,1.40
2023-03-22T11:35:23.134Z,1.40
2023-03-22T11:38:40.496Z,1.30
2023-03-22T11:41:39.955Z,1.92
2023-03-22T11:44:38.086Z,1.92
2023-03-22T11:47:41.594Z,1.88
2023-03-22T11:50:41.924Z,1.42
2023-03-22T11:53:46.841Z,1.33
2023-03-22T11:56:48.103Z,1.35
2023-03-22T12:00:08.016Z,1.83
2023-03-22T12:03:17.943Z,1.70
2023-03-22T12:06:31.867Z,1.83
2023-03-22T12:09:59.144Z,1.35
2023-03-22T12:13:07.036Z,1.80
2023-03-22T12:16:07.960Z,1.80
2023-03-22T12:19:51.990Z,1.23
2023-03-22T12:22:54.225Z,1.95
2023-03-22T12:26:00.377Z,1.10
2023-03-22T12:29:09.716Z,1.30
2023-03-22T12:32:16.057Z,1.35
2023-03-22T12:35:21.670Z,1.60
2023-03-22T12:38:41.103Z,0.95
2023-03-22T12:41:43.105Z,1.05
2023-03-22T12:44:46.511Z,0.80
2023-03-22T12:48:08.123Z,1.10
2023-03-22T12:51:12.715Z,1.10
2023-03-22T12:54:13.941Z,1.30
2023-03-22T12:57:11.790Z,1.25
2023-03-22T13:00:15.789Z,0.75
2023-03-22T13:03:38.189Z,1.45
2023-03-22T13:06:58.002Z,0.80
2023-03-22T13:09:54.891Z,1.02
2023-03-22T13:13:21.145Z,0.98
2023-03-22T13:16:22.708Z,1.40
2023-03-22T13:19:35.803Z,1.20
2023-03-22T13:22:38.672Z,1.17
2023-03-22T13:25:38.968Z,0.80
2023-03-22T13:28:38.061Z,1.30
2023-03-22T13:31:42.753Z,0.65
2023-03-22T13:34:52.603Z,0.68
2023-03-22T13:37:51.346Z,0.90
2023-03-22T13:41:13.725Z,1.00
2023-03-22T13:44:37.172Z,1.00
2023-03-22T13:47:46.472Z,0.75
2023-03-22T13:50:43.919Z,1.15
2023-03-22T13:54:02.255Z,0.68
2023-03-22T13:57:01.504Z,1.30
2023-03-22T14:00:20.713Z,0.93
2023-03-22T14:03:31.538Z,0.90
2023-03-22T14:09:51.092Z,0.80
2023-03-22T14:13:31.874Z,0.93
2023-03-22T14:16:47.345Z,1.15
2023-03-22T14:19:44.694Z,0.80
